Time;durP1;ratioP1;P1;durP2;ratioP2;P2;SDS_P1;SDS_P2;PMS_P1;PMS_P2;Temp;Humidity;BMP_temperature;BMP_pressure;BME280_temperature;BME280_humidity;BME280_pressure;Samples;Min_cycle;Max_cycle;Signal;HPM_P1;HPM_P2
2021/05/24 02:48:22;;;;;;;3.13;2.92;;;9.10;99.90;;;;;;5000483;22;86541;-87
2021/05/24 02:50:48;;;;;;;6.55;3.72;;;9.10;99.90;;;;;;4973625;28;86963;-85
2021/05/24 02:53:14;;;;;;;3.42;3.20;;;9.10;99.90;;;;;;4983194;28;87700;-83
2021/05/24 02:55:39;;;;;;;3.78;3.47;;;9.00;99.90;;;;;;4955896;28;90200;-84
2021/05/24 02:58:06;;;;;;;3.97;3.50;;;9.00;99.90;;;;;;4972351;28;86477;-88
2021/05/24 03:00:32;;;;;;;4.07;3.78;;;9.00;99.90;;;;;;4982097;28;87008;-85
2021/05/24 03:02:58;;;;;;;3.58;3.22;;;9.00;99.90;;;;;;4971995;28;87755;-86
2021/05/24 03:05:24;;;;;;;3.60;3.30;;;9.00;99.90;;;;;;4983281;28;87071;-86
2021/05/24 03:07:52;;;;;;;4.55;3.28;;;9.00;99.90;;;;;;4981892;28;87143;-85
2021/05/24 03:10:20;;;;;;;3.67;2.88;;;9.00;99.90;;;;;;4985380;28;87107;-87
2021/05/24 03:12:46;;;;;;;3.25;2.97;;;9.00;99.90;;;;;;4986546;28;86995;-86
2021/05/24 03:15:14;;;;;;;3.30;3.08;;;9.00;99.90;;;;;;4951703;28;87674;-87
2021/05/24 03:17:39;;;;;;;5.25;3.50;;;9.00;99.90;;;;;;4978687;28;86601;-87
2021/05/24 03:20:08;;;;;;;3.50;3.20;;;9.00;99.90;;;;;;4977469;28;85882;-88
2021/05/24 03:22:34;;;;;;;3.25;2.90;;;;;;;;;;4987865;28;87680;-85
2021/05/24 03:25:00;;;;;;;3.05;2.83;;;9.00;99.90;;;;;;4970804;28;87242;-87
2021/05/24 03:27:25;;;;;;;3.78;3.45;;;8.90;99.90;;;;;;4970184;28;87830;-85
2021/05/24 03:29:51;;;;;;;3.83;3.30;;;8.90;99.90;;;;;;4979468;28;86904;-85
2021/05/24 03:32:17;;;;;;;3.20;3.00;;;8.80;99.90;;;;;;4975770;28;88324;-86
2021/05/24 03:34:43;;;;;;;4.50;3.58;;;8.80;99.90;;;;;;4988883;28;87053;-85
2021/05/24 03:37:08;;;;;;;4.30;3.53;;;8.80;99.90;;;;;;4981775;28;86959;-86
2021/05/24 03:39:34;;;;;;;3.70;3.22;;;8.80;99.90;;;;;;4975770;28;86625;-87
2021/05/24 03:42:00;;;;;;;3.55;3.25;;;8.80;99.90;;;;;;4972142;28;87179;-85
2021/05/24 03:44:25;;;;;;;4.25;3.47;;;8.80;99.90;;;;;;4984055;28;88334;-86
2021/05/24 03:46:51;;;;;;;5.78;3.60;;;8.80;99.90;;;;;;4971014;28;86962;-87
2021/05/24 03:49:17;;;;;;;4.25;3.45;;;8.80;99.90;;;;;;4950527;28;86836;-85
2021/05/24 03:51:43;;;;;;;3.30;3.00;;;8.90;99.90;;;;;;4950773;28;89134;-87
2021/05/24 03:54:09;;;;;;;4.13;3.20;;;8.90;99.90;;;;;;4949749;28;87865;-87
2021/05/24 03:56:35;;;;;;;4.05;3.40;;;8.90;99.90;;;;;;4960745;28;86603;-87
2021/05/24 03:59:01;;;;;;;4.25;3.50;;;8.90;99.90;;;;;;4969563;28;86836;-87
2021/05/24 04:01:26;;;;;;;3.90;3.60;;;8.90;99.90;;;;;;4968129;28;86957;-87
2021/05/24 04:03:54;;;;;;;3.78;3.30;;;8.90;99.90;;;;;;4955801;28;86985;-89
2021/05/24 04:06:20;;;;;;;3.95;3.40;;;8.80;99.90;;;;;;4961863;28;87026;-86
2021/05/24 04:08:47;;;;;;;3.92;3.63;;;8.80;99.90;;;;;;4961984;28;86147;-88
2021/05/24 04:11:14;;;;;;;3.05;2.83;;;8.80;99.90;;;;;;4971082;28;87036;-88
2021/05/24 04:13:42;;;;;;;4.32;3.85;;;8.80;99.90;;;;;;4974542;28;87010;-87
2021/05/24 04:16:07;;;;;;;4.78;3.80;;;8.90;99.90;;;;;;4972930;28;87878;-86
2021/05/24 04:18:35;;;;;;;4.70;4.20;;;8.80;99.90;;;;;;4974769;28;86944;-86
2021/05/24 04:21:04;;;;;;;5.13;3.70;;;8.80;99.90;;;;;;4971257;28;86581;-85
2021/05/24 04:23:30;;;;;;;3.67;3.38;;;8.80;99.90;;;;;;4971085;28;87135;-87
2021/05/24 04:25:56;;;;;;;5.60;3.72;;;8.90;99.90;;;;;;4964914;28;86947;-87
2021/05/24 04:28:21;;;;;;;3.17;2.97;;;8.90;99.90;;;;;;4968521;28;87004;-86
2021/05/24 04:30:47;;;;;;;3.72;3.17;;;9.00;99.90;;;;;;4966628;28;88141;-86
2021/05/24 04:33:13;;;;;;;3.22;2.88;;;;;;;;;;4965914;28;86268;-87
2021/05/24 04:35:39;;;;;;;3.30;3.05;;;9.10;99.90;;;;;;4960899;28;87021;-88
2021/05/24 04:38:05;;;;;;;3.95;3.63;;;9.20;99.90;;;;;;4947382;28;87006;-88
2021/05/24 04:40:32;;;;;;;3.70;3.40;;;9.20;99.90;;;;;;4949422;28;89689;-86
2021/05/24 04:42:58;;;;;;;4.00;3.28;;;9.20;99.90;;;;;;4964575;28;87115;-87
2021/05/24 04:45:25;;;;;;;3.40;2.97;;;9.30;99.90;;;;;;4967249;28;86913;-85
2021/05/24 04:47:50;;;;;;;3.95;3.00;;;9.30;99.90;;;;;;4960381;28;86601;-86
2021/05/24 04:50:16;;;;;;;3.35;3.13;;;9.40;99.90;;;;;;4947501;28;88564;-87
2021/05/24 04:52:42;;;;;;;2.80;2.58;;;9.50;99.90;;;;;;4958902;28;87204;-86
2021/05/24 04:55:10;;;;;;;2.90;2.70;;;9.50;99.90;;;;;;4954246;28;86574;-87
2021/05/24 04:57:35;;;;;;;3.05;2.58;;;9.50;99.90;;;;;;4969135;28;86166;-87
2021/05/24 05:00:04;;;;;;;3.00;2.70;;;9.60;99.90;;;;;;4970312;28;87393;-87
2021/05/24 05:02:29;;;;;;;4.45;3.22;;;9.60;99.90;;;;;;4965266;28;90654;-87
2021/05/24 05:05:05;;;;;;;3.00;2.90;;;9.70;99.90;;;;;;4971497;28;87854;-87
2021/05/24 05:07:31;;;;;;;2.88;2.65;;;9.80;99.90;;;;;;4964465;28;86928;-85
2021/05/24 05:09:58;;;;;;;3.13;2.95;;;9.80;99.90;;;;;;4963224;28;87276;-90
2021/05/24 05:12:25;;;;;;;3.53;3.22;;;9.90;99.90;;;;;;4966610;28;88116;-87
2021/05/24 05:14:58;;;;;;;3.00;2.80;;;10.00;99.90;;;;;;4966698;28;86889;-86
2021/05/24 05:17:24;;;;;;;3.75;2.78;;;10.00;99.90;;;;;;4969147;28;87020;-87
2021/05/24 05:19:50;;;;;;;3.20;2.85;;;10.00;99.90;;;;;;4962024;28;87612;-88
2021/05/24 05:22:16;;;;;;;2.72;2.60;;;10.10;99.90;;;;;;4966097;28;87227;-86
2021/05/24 05:24:42;;;;;;;2.92;2.67;;;10.20;99.90;;;;;;4964947;28;86913;-86
2021/05/24 05:27:07;;;;;;;3.42;2.80;;;10.30;99.90;;;;;;4960422;28;87096;-86
2021/05/24 05:29:33;;;;;;;2.55;2.35;;;10.40;99.90;;;;;;4964572;28;87442;-85
2021/05/24 05:31:59;;;;;;;2.83;2.63;;;10.50;99.90;;;;;;4967185;28;87920;-86
2021/05/24 05:34:25;;;;;;;2.88;2.63;;;10.60;99.90;;;;;;4959124;28;86627;-86
2021/05/24 05:36:51;;;;;;;2.95;2.75;;;10.70;99.90;;;;;;4962043;28;87020;-85
2021/05/24 05:39:17;;;;;;;3.22;2.88;;;10.80;99.90;;;;;;4953778;28;87243;-87
2021/05/24 05:41:43;;;;;;;3.72;3.25;;;10.90;99.90;;;;;;4962523;28;86864;-86
2021/05/24 05:44:09;;;;;;;3.65;2.95;;;11.10;99.90;;;;;;4953137;28;87058;-85
2021/05/24 05:46:35;;;;;;;3.22;3.00;;;11.10;99.90;;;;;;4969322;28;85897;-88
2021/05/24 05:49:01;;;;;;;2.90;2.60;;;11.20;99.90;;;;;;4959366;28;87632;-84
2021/05/24 05:51:27;;;;;;;3.20;3.00;;;11.30;99.90;;;;;;4952794;28;86954;-87
2021/05/24 05:53:53;;;;;;;3.45;3.15;;;11.40;99.90;;;;;;4966335;28;87934;-86
2021/05/24 05:56:19;;;;;;;3.25;3.05;;;11.50;99.90;;;;;;4968797;28;86893;-85
2021/05/24 05:58:45;;;;;;;3.58;3.30;;;11.50;99.90;;;;;;4959495;28;86775;-86
2021/05/24 06:01:10;;;;;;;4.45;4.15;;;11.60;99.90;;;;;;4957804;28;86903;-87
2021/05/24 06:03:36;;;;;;;4.70;4.40;;;11.70;99.90;;;;;;4962799;28;86797;-85
2021/05/24 06:06:02;;;;;;;5.30;4.82;;;11.70;99.90;;;;;;4953990;28;87070;-85
2021/05/24 06:08:28;;;;;;;4.68;4.00;;;11.70;99.90;;;;;;4962960;28;86936;-84
2021/05/24 06:10:56;;;;;;;4.55;3.70;;;11.80;99.90;;;;;;4958980;28;86802;-85
2021/05/24 06:13:22;;;;;;;3.78;3.50;;;11.80;99.90;;;;;;4960024;28;87091;-84
2021/05/24 06:15:47;;;;;;;4.60;3.63;;;11.90;99.90;;;;;;4964494;28;86841;-85
2021/05/24 06:18:13;;;;;;;4.40;4.10;;;12.00;99.90;;;;;;4962330;28;88142;-88
2021/05/24 06:20:39;;;;;;;5.05;3.63;;;12.00;99.90;;;;;;4948665;28;87954;-84
2021/05/24 06:23:04;;;;;;;3.72;3.42;;;12.00;99.90;;;;;;4954242;28;86918;-85
2021/05/24 06:25:31;;;;;;;3.67;3.47;;;12.10;99.90;;;;;;4962943;28;86990;-84
2021/05/24 06:27:57;;;;;;;3.78;3.47;;;12.10;99.90;;;;;;4965769;28;88269;-84
2021/05/24 06:30:23;;;;;;;3.85;3.58;;;12.20;99.90;;;;;;4958369;28;87131;-85
2021/05/24 06:32:49;;;;;;;4.45;3.80;;;12.30;99.90;;;;;;4964416;28;86886;-85
2021/05/24 06:35:14;;;;;;;4.30;3.30;;;12.40;99.90;;;;;;4964329;28;86206;-85
2021/05/24 06:37:40;;;;;;;4.15;3.67;;;12.50;99.90;;;;;;4952624;28;87343;-84
2021/05/24 06:40:07;;;;;;;4.38;3.95;;;12.50;99.90;;;;;;4958160;28;86900;-83
2021/05/24 06:42:33;;;;;;;4.35;3.95;;;12.60;99.90;;;;;;4958770;28;87956;-85
2021/05/24 06:44:58;;;;;;;4.53;4.13;;;12.60;99.90;;;;;;4955292;28;87052;-86
2021/05/24 06:47:26;;;;;;;4.15;3.85;;;12.70;99.90;;;;;;4965264;28;86926;-84
2021/05/24 06:49:52;;;;;;;3.72;3.33;;;12.80;99.90;;;;;;4981771;28;86188;-85
2021/05/24 06:52:18;;;;;;;5.22;4.55;;;;;;;;;;4965796;28;86959;-87
2021/05/24 06:54:44;;;;;;;5.07;4.72;;;13.00;99.90;;;;;;4967956;28;86622;-87
2021/05/24 06:57:09;;;;;;;5.10;4.70;;;13.10;99.90;;;;;;4956892;28;87317;-84
2021/05/24 06:59:35;;;;;;;5.60;5.10;;;13.10;99.90;;;;;;4968082;28;87348;-86
2021/05/24 07:02:02;;;;;;;5.03;4.63;;;13.10;99.90;;;;;;4954396;28;86554;-87
2021/05/24 07:04:28;;;;;;;4.88;4.47;;;13.20;99.90;;;;;;4964813;28;86814;-88
2021/05/24 07:06:54;;;;;;;5.10;4.80;;;13.30;99.90;;;;;;4963534;28;89241;-87
2021/05/24 07:09:21;;;;;;;4.50;4.13;;;13.30;99.90;;;;;;4961749;28;88405;-87
2021/05/24 07:11:47;;;;;;;4.60;4.20;;;13.30;99.90;;;;;;4963427;28;86873;-87
2021/05/24 07:14:13;;;;;;;5.47;5.18;;;13.40;99.90;;;;;;4957949;28;86732;-88
2021/05/24 07:16:40;;;;;;;4.53;3.90;;;13.50;99.90;;;;;;4955907;28;88175;-88
2021/05/24 07:19:05;;;;;;;5.25;4.18;;;13.50;99.90;;;;;;4961067;28;87222;-88
2021/05/24 07:21:31;;;;;;;4.90;4.55;;;13.50;99.90;;;;;;4961785;28;86654;-86
2021/05/24 07:23:57;;;;;;;4.30;4.00;;;13.50;99.90;;;;;;4965251;28;86153;-87
2021/05/24 07:26:23;;;;;;;5.68;4.93;;;13.50;99.90;;;;;;4961445;28;87742;-86
2021/05/24 07:28:48;;;;;;;4.28;4.00;;;13.50;99.90;;;;;;4961473;28;87315;-86
2021/05/24 07:31:14;;;;;;;3.63;3.42;;;13.60;99.90;;;;;;4947354;28;87806;-85
2021/05/24 07:33:40;;;;;;;4.13;3.83;;;13.60;99.90;;;;;;4961619;28;86967;-84
2021/05/24 07:36:06;;;;;;;5.28;4.90;;;13.60;99.90;;;;;;4962087;28;88383;-84
2021/05/24 07:38:32;;;;;;;5.32;4.13;;;13.60;99.90;;;;;;4964930;28;87741;-84
2021/05/24 07:40:58;;;;;;;4.07;3.72;;;13.60;99.90;;;;;;4960429;28;87185;-86
2021/05/24 07:43:23;;;;;;;4.47;4.10;;;13.50;99.90;;;;;;4956165;28;87786;-85
2021/05/24 07:45:56;;;;;;;4.03;3.72;;;13.40;99.90;;;;;;4955518;28;88363;-84
2021/05/24 07:48:22;;;;;;;4.25;3.85;;;13.40;99.90;;;;;;4962732;28;86963;-85
2021/05/24 07:50:47;;;;;;;4.90;4.50;;;13.50;99.90;;;;;;4961980;28;86856;-86
2021/05/24 07:53:13;;;;;;;4.35;3.97;;;13.50;99.90;;;;;;4959540;28;87041;-85
2021/05/24 07:55:39;;;;;;;4.28;3.97;;;13.50;99.90;;;;;;4965435;28;88023;-84
2021/05/24 07:58:05;;;;;;;4.45;4.05;;;13.60;99.90;;;;;;4956702;28;88156;-84
2021/05/24 08:00:31;;;;;;;4.80;4.50;;;13.50;99.90;;;;;;4956994;28;86862;-84
2021/05/24 08:02:56;;;;;;;4.85;4.47;;;13.40;99.90;;;;;;4960721;28;86910;-83
2021/05/24 08:05:22;;;;;;;4.38;4.00;;;13.40;99.90;;;;;;4958514;28;87540;-85
2021/05/24 08:07:48;;;;;;;3.72;3.53;;;13.40;99.90;;;;;;4955006;28;87144;-84
2021/05/24 08:10:16;;;;;;;5.57;5.07;;;13.40;99.90;;;;;;4964791;28;86558;-85
2021/05/24 08:12:42;;;;;;;6.80;6.15;;;13.40;99.90;;;;;;4964162;28;86358;-84
2021/05/24 08:15:16;;;;;;;5.70;5.30;;;13.40;99.90;;;;;;4964210;28;88025;-83
2021/05/24 08:17:42;;;;;;;4.95;4.55;;;13.30;99.90;;;;;;4961970;28;87397;-85
2021/05/24 08:20:09;;;;;;;5.05;4.65;;;13.30;99.90;;;;;;4965073;28;87991;-84
2021/05/24 08:22:35;;;;;;;4.90;4.60;;;13.50;99.90;;;;;;4962636;28;86969;-84
2021/05/24 08:25:01;;;;;;;4.63;4.32;;;13.60;99.90;;;;;;4964181;28;86824;-82
2021/05/24 08:27:27;;;;;;;5.75;5.25;;;13.60;99.90;;;;;;4965866;28;87562;-82
2021/05/24 08:29:52;;;;;;;4.70;4.40;;;13.80;99.90;;;;;;4957933;28;87044;-84
2021/05/24 08:32:18;;;;;;;5.93;5.15;;;13.80;99.90;;;;;;4967181;28;86893;-85
2021/05/24 08:34:44;;;;;;;5.40;4.90;;;13.80;99.90;;;;;;4958795;28;87042;-84
2021/05/24 08:37:09;;;;;;;5.93;5.53;;;14.00;99.90;;;;;;4967377;28;86193;-84
2021/05/24 08:39:35;;;;;;;6.10;5.70;;;14.10;99.90;;;;;;4962427;28;86911;-82
2021/05/24 08:42:01;;;;;;;5.80;5.40;;;14.20;99.90;;;;;;4960776;28;86640;-83
2021/05/24 08:44:27;;;;;;;5.65;5.30;;;14.20;99.90;;;;;;4956375;28;88217;-83
2021/05/24 08:46:53;;;;;;;6.78;6.32;;;14.20;99.90;;;;;;4955666;28;89025;-84
2021/05/24 08:49:19;;;;;;;7.15;6.55;;;14.30;99.90;;;;;;4961895;28;87679;-84
2021/05/24 08:51:44;;;;;;;7.68;7.03;;;14.40;99.90;;;;;;4965976;28;87513;-85
2021/05/24 08:54:10;;;;;;;6.55;6.05;;;14.50;99.90;;;;;;4956051;28;88196;-85
2021/05/24 08:56:37;;;;;;;6.97;6.38;;;14.80;99.90;;;;;;4955671;28;88379;-83
2021/05/24 08:59:03;;;;;;;6.50;6.00;;;15.00;99.90;;;;;;4959642;28;86840;-84
2021/05/24 09:01:29;;;;;;;5.68;5.28;;;15.20;99.40;;;;;;4966483;28;85970;-82
2021/05/24 09:04:03;;;;;;;7.88;7.38;;;15.50;97.80;;;;;;4959039;28;87145;-84
2021/05/24 09:06:41;;;;;;;6.75;5.80;;;15.50;97.80;;;;;;4957070;28;87278;-84
2021/05/24 09:09:15;;;;;;;5.90;5.50;;;15.50;97.20;;;;;;4957379;28;87801;-85
2021/05/24 09:11:42;;;;;;;5.97;5.40;;;15.50;98.00;;;;;;4971249;28;87465;-83
2021/05/24 09:14:11;;;;;;;7.05;5.20;;;15.50;97.50;;;;;;4964070;28;87421;-85
2021/05/24 09:16:37;;;;;;;4.70;4.15;;;15.50;96.90;;;;;;4963106;28;86998;-82
2021/05/24 09:19:18;;;;;;;4.70;4.30;;;15.50;96.30;;;;;;4967750;28;86777;-83
2021/05/24 09:21:56;;;;;;;5.75;5.25;;;15.30;96.20;;;;;;4955070;28;87617;-85
2021/05/24 09:24:22;;;;;;;4.65;4.25;;;15.20;96.30;;;;;;4969703;28;88245;-81
2021/05/24 09:26:49;;;;;;;5.43;4.97;;;15.20;97.00;;;;;;4967621;28;86728;-79
2021/05/24 09:29:17;;;;;;;4.53;4.15;;;15.30;96.70;;;;;;4966510;28;87201;-88
2021/05/24 09:31:42;;;;;;;5.40;5.10;;;15.40;95.80;;;;;;4959885;28;87166;-86
2021/05/24 09:34:08;;;;;;;5.50;5.13;;;15.50;95.50;;;;;;4968226;28;87981;-86
2021/05/24 09:36:36;;;;;;;4.95;4.65;;;15.50;94.30;;;;;;4962353;28;88570;-86
2021/05/24 09:39:11;;;;;;;3.80;3.50;;;15.50;94.30;;;;;;4963186;28;86914;-88
2021/05/24 09:41:47;;;;;;;3.90;3.60;;;15.50;94.10;;;;;;4963940;28;87052;-88
2021/05/24 09:44:26;;;;;;;5.30;5.00;;;15.70;93.90;;;;;;4965917;28;87101;-86
2021/05/24 09:46:52;;;;;;;5.82;5.43;;;15.80;92.60;;;;;;4967144;28;87134;-86
2021/05/24 09:49:26;;;;;;;5.88;5.40;;;15.90;93.00;;;;;;4956890;28;86983;-87
2021/05/24 09:51:59;;;;;;;5.65;5.35;;;15.90;92.60;;;;;;4961075;28;86140;-87
2021/05/24 09:54:37;;;;;;;4.65;4.28;;;16.00;92.20;;;;;;4952537;28;87189;-86
2021/05/24 09:57:08;;;;;;;8.55;8.05;;;16.40;93.80;;;;;;4962178;28;87896;-88
2021/05/24 09:59:35;;;;;;;5.93;5.53;;;16.60;91.70;;;;;;4963090;28;87975;-85
2021/05/24 10:02:03;;;;;;;4.05;3.85;;;17.00;90.20;;;;;;4953195;28;86907;-86
2021/05/24 10:04:32;;;;;;;5.00;4.70;;;17.30;86.10;;;;;;4960070;28;87261;-87
2021/05/24 10:07:02;;;;;;;5.75;5.43;;;17.60;85.70;;;;;;4963820;28;87405;-87
2021/05/24 10:09:35;;;;;;;5.20;4.80;;;17.90;83.90;;;;;;4957023;28;87047;-86
2021/05/24 10:12:03;;;;;;;5.13;4.85;;;18.30;82.90;;;;;;4963546;28;87146;-84
2021/05/24 10:14:30;;;;;;;6.90;6.50;;;18.70;81.50;;;;;;4964109;28;87489;-82
2021/05/24 10:17:01;;;;;;;6.70;6.20;;;18.90;76.60;;;;;;4961639;28;86444;-85
2021/05/24 10:19:27;;;;;;;6.60;6.22;;;19.10;75.40;;;;;;4956810;28;86951;-85
2021/05/24 10:21:53;;;;;;;7.28;6.78;;;19.30;75.40;;;;;;4963200;28;86916;-84
2021/05/24 10:24:25;;;;;;;7.45;7.10;;;19.60;74.60;;;;;;4962776;28;88433;-84
2021/05/24 10:26:54;;;;;;;7.05;6.65;;;19.80;74.80;;;;;;4954262;28;88218;-84
2021/05/24 10:29:20;;;;;;;6.38;6.00;;;19.90;71.60;;;;;;4966710;28;86813;-85
2021/05/24 10:31:46;;;;;;;7.05;6.53;;;20.20;70.70;;;;;;4962832;28;86989;-84
2021/05/24 10:34:23;;;;;;;7.65;7.15;;;20.80;69.90;;;;;;4957549;28;87314;-82
2021/05/24 10:37:08;;;;;;;8.43;8.00;;;21.70;69.70;;;;;;4956126;28;87854;-89
2021/05/24 10:40:04;;;;;;;6.35;5.95;;;22.10;65.50;;;;;;4959611;28;86885;-87
2021/05/24 10:42:42;;;;;;;6.93;6.53;;;22.00;64.20;;;;;;4960852;28;85965;-85
2021/05/24 10:45:15;;;;;;;7.13;6.43;;;22.10;65.60;;;;;;4961240;28;87739;-85
2021/05/24 10:47:59;;;;;;;7.20;6.80;;;22.30;66.10;;;;;;4959746;28;87211;-86
2021/05/24 10:50:30;;;;;;;8.10;7.60;;;22.20;67.40;;;;;;4960460;28;87951;-83
2021/05/24 10:53:21;;;;;;;8.30;7.85;;;21.60;65.60;;;;;;4950853;28;86990;-82
2021/05/24 10:55:50;;;;;;;5.20;4.80;;;22.00;65.80;;;;;;4963744;28;87127;-86
2021/05/24 10:58:17;;;;;;;5.88;4.90;;;21.80;64.80;;;;;;4954612;28;86924;-84
2021/05/24 11:00:55;;;;;;;8.15;7.65;;;21.20;66.10;;;;;;4964375;28;86757;-86
2021/05/24 11:03:21;;;;;;;5.40;4.97;;;21.40;66.40;;;;;;4958963;28;87004;-86
2021/05/24 11:06:16;;;;;;;5.20;4.90;;;21.20;68.50;;;;;;4958944;28;86706;-84
2021/05/24 11:08:49;;;;;;;6.10;5.53;;;21.30;68.30;;;;;;4958081;28;86920;-85
2021/05/24 11:11:22;;;;;;;8.77;8.07;;;21.50;68.00;;;;;;4953017;28;86825;-85
2021/05/24 11:14:02;;;;;;;5.25;4.95;;;21.60;67.80;;;;;;4964273;28;87294;-86
2021/05/24 11:16:29;;;;;;;8.67;4.80;;;21.70;67.90;;;;;;4959321;28;88577;-87
2021/05/24 11:19:10;;;;;;;5.15;4.60;;;21.70;68.80;;;;;;4955249;28;88560;-85
2021/05/24 11:21:37;;;;;;;7.70;7.30;;;21.60;67.30;;;;;;4963392;28;86954;-86
2021/05/24 11:27:15;;;;;;;4.40;4.10;;;21.30;66.70;;;;;;4960508;28;86512;-85
2021/05/24 11:29:43;;;;;;;4.57;4.15;;;21.30;65.70;;;;;;4957977;28;87030;-86
2021/05/24 11:32:29;;;;;;;8.90;4.60;;;21.40;67.20;;;;;;4968963;28;86904;-86
2021/05/24 11:34:56;;;;;;;4.68;4.28;;;21.50;67.30;;;;;;4957079;28;86350;-84
2021/05/24 11:37:42;;;;;;;4.25;3.97;;;21.30;67.90;;;;;;4960760;28;88338;-85
2021/05/24 11:40:15;;;;;;;4.50;4.10;;;21.00;68.40;;;;;;4955774;28;87056;-85
2021/05/24 11:42:41;;;;;;;5.50;5.10;;;20.60;67.40;;;;;;4959005;28;87973;-84
2021/05/24 11:45:21;;;;;;;4.85;4.45;;;20.30;68.30;;;;;;4964621;28;86933;-85
2021/05/24 11:47:58;;;;;;;5.93;5.53;;;19.80;67.90;;;;;;4962290;28;86775;-87
2021/05/24 11:50:26;;;;;;;4.50;4.20;;;19.80;68.40;;;;;;4950890;28;86978;-84
2021/05/24 11:52:52;;;;;;;4.75;4.00;;;19.70;68.60;;;;;;4963906;28;87002;-84
2021/05/24 11:55:18;;;;;;;4.70;4.35;;;19.50;69.80;;;;;;4956851;28;87094;-85
2021/05/24 11:57:44;;;;;;;6.05;5.57;;;19.20;68.90;;;;;;4961850;28;88063;-85
2021/05/24 12:00:13;;;;;;;4.57;4.28;;;19.10;69.20;;;;;;4966498;28;86188;-85
2021/05/24 12:02:45;;;;;;;5.10;4.70;;;19.00;69.10;;;;;;4964831;28;87020;-84
2021/05/24 12:05:16;;;;;;;5.38;4.97;;;18.90;69.20;;;;;;4964362;28;86901;-87
2021/05/24 12:07:42;;;;;;;6.18;5.63;;;18.70;71.10;;;;;;4963549;28;87762;-85
2021/05/24 12:10:10;;;;;;;7.93;7.43;;;18.50;70.90;;;;;;4983939;28;87300;-88
2021/05/24 12:12:38;;;;;;;7.32;6.93;;;18.40;71.70;;;;;;4962124;28;86197;-87
2021/05/24 12:15:11;;;;;;;6.82;6.43;;;18.20;73.20;;;;;;4967874;28;86910;-86
2021/05/24 12:17:37;;;;;;;7.18;6.68;;;18.10;74.50;;;;;;4966891;28;88165;-87
2021/05/24 12:20:06;;;;;;;7.45;6.90;;;17.70;77.80;;;;;;4958544;28;87061;-85
2021/05/24 12:22:41;;;;;;;7.15;6.60;;;17.10;77.40;;;;;;4957414;28;86788;-87
2021/05/24 12:25:08;;;;;;;7.32;6.72;;;17.40;79.30;;;;;;4966762;28;86092;-85
2021/05/24 12:27:34;;;;;;;8.88;8.15;;;16.70;79.90;;;;;;4966077;28;86935;-87
2021/05/24 12:30:13;;;;;;;8.35;7.70;;;17.00;79.50;;;;;;4966415;28;86938;-86
2021/05/24 12:32:42;;;;;;;7.72;7.07;;;17.40;81.90;;;;;;4963100;28;87847;-86
2021/05/24 12:35:14;;;;;;;7.40;6.95;;;16.80;82.30;;;;;;4953636;28;86902;-86
2021/05/24 12:37:46;;;;;;;6.68;5.72;;;16.80;81.10;;;;;;4959165;28;88187;-85
2021/05/24 12:40:13;;;;;;;7.05;6.65;;;16.80;81.90;;;;;;4964656;28;87955;-84
2021/05/24 12:42:41;;;;;;;5.57;5.03;;;16.70;82.10;;;;;;4963844;28;86513;-84
2021/05/24 12:45:10;;;;;;;7.18;5.63;;;16.60;82.80;;;;;;4959532;28;86945;-87
2021/05/24 12:47:36;;;;;;;6.35;5.75;;;16.60;83.10;;;;;;4961768;28;87798;-85
2021/05/24 12:50:29;;;;;;;6.15;5.57;;;16.50;83.60;;;;;;4961515;28;87408;-84
2021/05/24 12:52:54;;;;;;;5.70;5.30;;;16.40;85.60;;;;;;4952626;28;86780;-83
2021/05/24 12:55:20;;;;;;;7.00;6.40;;;16.30;85.00;;;;;;4961522;28;87103;-83
2021/05/24 12:57:48;;;;;;;7.53;6.28;;;16.30;87.00;;;;;;4966123;28;88014;-82
2021/05/24 13:00:15;;;;;;;6.03;5.53;;;16.30;87.20;;;;;;4958437;28;87934;-81
2021/05/24 13:02:41;;;;;;;6.47;5.88;;;16.30;87.80;;;;;;4961785;28;86755;-82
2021/05/24 13:05:18;;;;;;;6.35;5.85;;;16.30;88.50;;;;;;4963322;28;86964;-82
2021/05/24 13:07:55;;;;;;;6.97;6.47;;;16.10;88.10;;;;;;4964385;28;86815;-85
2021/05/24 13:10:31;;;;;;;6.85;6.35;;;16.00;90.00;;;;;;4955955;28;87625;-85
2021/05/24 13:13:08;;;;;;;6.03;5.63;;;16.00;86.90;;;;;;4957238;28;88176;-85
2021/05/24 13:15:37;;;;;;;5.93;5.40;;;16.00;87.00;;;;;;4960059;28;85670;-81
2021/05/24 13:18:15;;;;;;;5.20;4.90;;;16.00;86.80;;;;;;4960510;28;88151;-84
2021/05/24 13:31:26;;;;;;;6.30;5.80;;;16.30;88.10;;;;;;4954807;28;87186;-86
2021/05/24 13:33:53;;;;;;;8.57;8.07;;;16.80;90.30;;;;;;4966441;28;87079;-84
2021/05/24 13:36:23;;;;;;;5.63;5.13;;;16.20;86.90;;;;;;4971299;28;86348;-86
2021/05/24 13:39:09;;;;;;;8.57;7.97;;;15.90;89.70;;;;;;4950770;28;87556;-85
2021/05/24 13:41:45;;;;;;;6.10;5.60;;;16.30;87.20;;;;;;4961770;28;86202;-85
2021/05/24 13:44:19;;;;;;;8.50;8.00;;;16.40;89.70;;;;;;4971359;28;86873;-85
2021/05/24 13:58:15;;;;;;;4.88;4.47;;;16.00;84.40;;;;;;5008588;22;87012;-85
2021/05/24 14:00:40;;;;;;;4.85;4.50;;;16.00;85.70;;;;;;4975027;28;86857;-84
2021/05/24 14:03:06;;;;;;;5.70;4.72;;;16.10;87.10;;;;;;4971086;28;87206;-86
2021/05/24 14:05:32;;;;;;;4.70;4.40;;;16.00;85.90;;;;;;4972540;28;86787;-84
2021/05/24 14:07:57;;;;;;;5.05;4.25;;;15.90;85.90;;;;;;4990814;28;86136;-85
2021/05/24 14:10:23;;;;;;;6.50;5.30;;;15.80;86.20;;;;;;4972815;28;86425;-84
2021/05/24 14:12:49;;;;;;;4.47;4.13;;;15.80;86.20;;;;;;4969771;28;87682;-85
2021/05/24 14:15:15;;;;;;;4.38;4.07;;;15.80;84.60;;;;;;4968917;28;87662;-87
2021/05/24 14:17:42;;;;;;;5.85;5.47;;;15.80;87.30;;;;;;4970115;28;86852;-86
2021/05/24 14:20:09;;;;;;;5.47;5.07;;;15.80;87.60;;;;;;4985779;28;87709;-84
2021/05/24 14:22:36;;;;;;;5.47;5.07;;;15.70;89.60;;;;;;4986409;28;88347;-85
2021/05/24 14:25:03;;;;;;;5.35;4.78;;;15.70;89.30;;;;;;4982394;28;86832;-83
2021/05/24 14:27:29;;;;;;;4.95;4.57;;;15.70;88.70;;;;;;4968503;28;86932;-85
2021/05/24 14:29:54;;;;;;;5.82;5.38;;;15.70;88.50;;;;;;4980422;28;86932;-85
2021/05/24 14:32:20;;;;;;;4.60;4.30;;;15.70;87.80;;;;;;4980119;28;86493;-84
2021/05/24 14:34:46;;;;;;;5.05;4.60;;;15.70;89.80;;;;;;4981894;28;86684;-86
2021/05/24 14:37:12;;;;;;;4.30;3.92;;;15.70;90.10;;;;;;4980201;28;86889;-84
2021/05/24 14:39:39;;;;;;;5.60;5.20;;;15.60;90.40;;;;;;4981222;28;88209;-85
2021/05/24 14:42:05;;;;;;;5.88;5.47;;;15.60;90.80;;;;;;4979656;28;88180;-83
2021/05/24 14:44:30;;;;;;;5.68;5.38;;;15.60;89.40;;;;;;4974329;28;86883;-86
2021/05/24 14:46:56;;;;;;;6.25;5.65;;;15.60;88.80;;;;;;4973930;28;87333;-82
2021/05/24 14:49:22;;;;;;;5.32;4.85;;;15.60;91.40;;;;;;4988745;28;86867;-82
2021/05/24 14:51:50;;;;;;;5.30;4.80;;;15.60;92.10;;;;;;4978530;28;86878;-86
2021/05/24 14:54:16;;;;;;;5.45;5.10;;;15.60;92.40;;;;;;4984126;28;86975;-88
2021/05/24 14:56:42;;;;;;;5.75;5.25;;;15.60;92.40;;;;;;4984745;28;86429;-85
2021/05/24 14:59:08;;;;;;;5.20;4.80;;;15.60;92.80;;;;;;4981910;28;87594;-86
2021/05/24 15:01:34;;;;;;;4.35;4.05;;;15.60;92.80;;;;;;4981747;28;87389;-83
2021/05/24 15:03:59;;;;;;;5.90;5.40;;;15.60;93.40;;;;;;4984922;28;87892;-86
2021/05/24 15:06:25;;;;;;;6.25;5.65;;;15.50;93.90;;;;;;4980956;28;86793;-86
2021/05/24 15:08:51;;;;;;;5.38;5.03;;;15.50;94.10;;;;;;4976595;28;86571;-84
2021/05/24 15:11:19;;;;;;;5.75;5.35;;;15.50;94.20;;;;;;4980384;28;87179;-87
2021/05/24 15:13:45;;;;;;;7.45;6.95;;;15.50;93.80;;;;;;4993692;28;86663;-86
2021/05/24 15:16:11;;;;;;;5.90;5.38;;;15.50;94.80;;;;;;4981756;28;86269;-85
2021/05/24 15:18:36;;;;;;;5.97;5.47;;;15.40;95.80;;;;;;4987245;28;86841;-85
2021/05/24 15:21:02;;;;;;;8.27;6.70;;;15.40;95.40;;;;;;4987722;28;87205;-85
2021/05/24 15:23:29;;;;;;;7.10;6.28;;;15.40;95.00;;;;;;4986516;28;86954;-85
2021/05/24 15:25:55;;;;;;;9.65;9.05;;;15.00;97.00;;;;;;4976892;28;87073;-87
2021/05/24 15:28:21;;;;;;;6.72;6.07;;;15.20;96.10;;;;;;4981646;28;88514;-87
2021/05/24 15:30:47;;;;;;;8.18;7.55;;;15.10;96.60;;;;;;4981611;28;89422;-84
2021/05/24 15:33:14;;;;;;;9.05;8.25;;;14.70;99.10;;;;;;4989067;28;87264;-89
2021/05/24 15:35:40;;;;;;;7.10;6.03;;;14.80;98.30;;;;;;4982665;28;88131;-85
2021/05/24 15:38:13;;;;;;;10.88;9.27;;;14.50;99.60;;;;;;4987894;28;87333;-87
2021/05/24 15:40:42;;;;;;;6.20;4.85;;;14.50;99.90;;;;;;4990377;28;87112;-84
2021/05/24 15:43:08;;;;;;;7.32;5.40;;;14.50;99.90;;;;;;4974685;28;86895;-85
2021/05/24 15:45:36;;;;;;;8.98;7.88;;;14.10;99.90;;;;;;4992427;28;85720;-84
2021/05/24 15:48:03;;;;;;;6.18;5.72;;;14.40;99.90;;;;;;4978433;28;90115;-85
2021/05/24 15:50:30;;;;;;;6.05;5.55;;;14.30;99.90;;;;;;4990524;28;86645;-87
2021/05/24 15:52:55;;;;;;;6.10;5.50;;;14.10;99.90;;;;;;4993537;28;87056;-85
2021/05/24 15:55:22;;;;;;;8.50;5.10;;;13.90;99.90;;;;;;4999556;28;86802;-85
2021/05/24 15:57:47;;;;;;;9.15;5.25;;;13.80;99.90;;;;;;4990657;28;86979;-88
2021/05/24 16:00:14;;;;;;;6.15;5.55;;;;;;;;;;4993735;28;87010;-87
2021/05/24 16:02:42;;;;;;;4.03;3.58;;;13.90;99.90;;;;;;4969721;28;87078;-84
2021/05/24 16:05:08;;;;;;;6.30;5.50;;;14.20;99.90;;;;;;4992865;28;86963;-86
2021/05/24 16:07:34;;;;;;;3.88;3.58;;;13.90;99.90;;;;;;4963284;28;91606;-87